sensor_id;sensor_type;location;lat;lon;timestamp;temperature;humidity
26909;DHT22;14477;51.038;4.588;2023-11-22T00:01:29;7.90;99.90
26909;DHT22;14477;51.038;4.588;2023-11-22T00:03:55;7.80;99.90
26909;DHT22;14477;51.038;4.588;2023-11-22T00:06:21;7.90;99.90
26909;DHT22;14477;51.038;4.588;2023-11-22T00:08:47;7.90;99.90
26909;DHT22;14477;51.038;4.588;2023-11-22T00:11:13;7.90;99.90
26909;DHT22;14477;51.038;4.588;2023-11-22T00:13:39;7.80;99.90
26909;DHT22;14477;51.038;4.588;2023-11-22T00:16:05;7.80;99.90
26909;DHT22;14477;51.038;4.588;2023-11-22T00:18:37;7.80;99.90
26909;DHT22;14477;51.038;4.588;2023-11-22T00:21:03;7.80;99.90
26909;DHT22;14477;51.038;4.588;2023-11-22T00:23:29;7.80;99.90
26909;DHT22;14477;51.038;4.588;2023-11-22T00:25:56;7.80;99.90
26909;DHT22;14477;51.038;4.588;2023-11-22T00:28:24;7.70;99.90
26909;DHT22;14477;51.038;4.588;2023-11-22T00:30:50;7.70;99.90
26909;DHT22;14477;51.038;4.588;2023-11-22T00:33:16;7.70;99.90
26909;DHT22;14477;51.038;4.588;2023-11-22T00:35:44;7.70;99.90
26909;DHT22;14477;51.038;4.588;2023-11-22T00:38:10;7.60;99.90
26909;DHT22;14477;51.038;4.588;2023-11-22T00:40:36;7.60;99.90
26909;DHT22;14477;51.038;4.588;2023-11-22T00:43:01;7.60;99.90
26909;DHT22;14477;51.038;4.588;2023-11-22T00:45:28;7.60;99.90
26909;DHT22;14477;51.038;4.588;2023-11-22T00:47:55;7.50;99.90
26909;DHT22;14477;51.038;4.588;2023-11-22T00:50:21;7.50;99.90
26909;DHT22;14477;51.038;4.588;2023-11-22T00:52:47;7.50;99.90
26909;DHT22;14477;51.038;4.588;2023-11-22T00:55:13;6.90;99.90
26909;DHT22;14477;51.038;4.588;2023-11-22T00:57:39;7.40;99.90
26909;DHT22;14477;51.038;4.588;2023-11-22T01:00:06;7.40;99.90
26909;DHT22;14477;51.038;4.588;2023-11-22T01:02:35;7.40;99.90
26909;DHT22;14477;51.038;4.588;2023-11-22T01:05:07;7.40;99.90
26909;DHT22;14477;51.038;4.588;2023-11-22T01:07:37;7.30;99.90
26909;DHT22;14477;51.038;4.588;2023-11-22T01:10:03;7.40;99.90
26909;DHT22;14477;51.038;4.588;2023-11-22T01:12:29;7.30;99.90
26909;DHT22;14477;51.038;4.588;2023-11-22T01:14:54;7.30;99.90
26909;DHT22;14477;51.038;4.588;2023-11-22T01:17:20;7.20;99.90
26909;DHT22;14477;51.038;4.588;2023-11-22T01:19:45;7.20;99.90
26909;DHT22;14477;51.038;4.588;2023-11-22T01:22:11;7.20;99.90
26909;DHT22;14477;51.038;4.588;2023-11-22T01:24:37;7.20;99.90
26909;DHT22;14477;51.038;4.588;2023-11-22T01:27:03;7.10;99.90
26909;DHT22;14477;51.038;4.588;2023-11-22T01:29:30;7.10;99.90
26909;DHT22;14477;51.038;4.588;2023-11-22T01:31:56;7.00;99.90
26909;DHT22;14477;51.038;4.588;2023-11-22T01:34:22;7.10;99.90
26909;DHT22;14477;51.038;4.588;2023-11-22T01:36:51;7.00;99.90
26909;DHT22;14477;51.038;4.588;2023-11-22T01:39:17;7.00;99.90
26909;DHT22;14477;51.038;4.588;2023-11-22T01:41:45;7.00;99.90
26909;DHT22;14477;51.038;4.588;2023-11-22T01:44:12;7.00;99.90
26909;DHT22;14477;51.038;4.588;2023-11-22T01:46:37;6.90;99.90
26909;DHT22;14477;51.038;4.588;2023-11-22T01:49:03;6.90;99.90
26909;DHT22;14477;51.038;4.588;2023-11-22T01:51:30;6.90;99.90
26909;DHT22;14477;51.038;4.588;2023-11-22T01:53:56;5.60;99.90
26909;DHT22;14477;51.038;4.588;2023-11-22T01:56:24;6.90;99.90
26909;DHT22;14477;51.038;4.588;2023-11-22T01:58:52;6.90;99.90
26909;DHT22;14477;51.038;4.588;2023-11-22T02:01:20;6.80;99.90
26909;DHT22;14477;51.038;4.588;2023-11-22T02:03:46;6.80;99.90
26909;DHT22;14477;51.038;4.588;2023-11-22T02:06:18;6.80;99.90
26909;DHT22;14477;51.038;4.588;2023-11-22T02:08:44;6.80;99.90
26909;DHT22;14477;51.038;4.588;2023-11-22T02:11:09;6.70;99.90
26909;DHT22;14477;51.038;4.588;2023-11-22T02:13:35;6.70;99.90
26909;DHT22;14477;51.038;4.588;2023-11-22T02:16:02;6.70;99.90
26909;DHT22;14477;51.038;4.588;2023-11-22T02:18:29;6.70;99.90
26909;DHT22;14477;51.038;4.588;2023-11-22T02:20:55;6.60;99.90
26909;DHT22;14477;51.038;4.588;2023-11-22T02:23:21;6.60;99.90
26909;DHT22;14477;51.038;4.588;2023-11-22T02:25:47;6.60;99.90
26909;DHT22;14477;51.038;4.588;2023-11-22T02:28:13;6.60;99.90
26909;DHT22;14477;51.038;4.588;2023-11-22T02:30:39;6.50;99.90
26909;DHT22;14477;51.038;4.588;2023-11-22T02:33:05;6.50;99.90
26909;DHT22;14477;51.038;4.588;2023-11-22T02:35:31;6.50;99.90
26909;DHT22;14477;51.038;4.588;2023-11-22T02:37:58;6.50;99.90
26909;DHT22;14477;51.038;4.588;2023-11-22T02:40:24;6.60;99.90
26909;DHT22;14477;51.038;4.588;2023-11-22T02:42:51;6.40;99.90
26909;DHT22;14477;51.038;4.588;2023-11-22T02:45:20;6.40;99.90
26909;DHT22;14477;51.038;4.588;2023-11-22T02:47:48;6.40;99.90
26909;DHT22;14477;51.038;4.588;2023-11-22T02:50:15;6.40;99.90
26909;DHT22;14477;51.038;4.588;2023-11-22T02:52:41;6.40;99.90
26909;DHT22;14477;51.038;4.588;2023-11-22T02:55:08;6.30;99.90
26909;DHT22;14477;51.038;4.588;2023-11-22T02:57:39;6.30;99.90
26909;DHT22;14477;51.038;4.588;2023-11-22T03:00:06;6.30;99.90
26909;DHT22;14477;51.038;4.588;2023-11-22T03:02:41;6.30;99.90
26909;DHT22;14477;51.038;4.588;2023-11-22T03:05:08;6.20;99.90
26909;DHT22;14477;51.038;4.588;2023-11-22T03:07:35;6.30;99.90
26909;DHT22;14477;51.038;4.588;2023-11-22T03:10:02;6.30;99.90
26909;DHT22;14477;51.038;4.588;2023-11-22T03:12:28;6.20;99.90
26909;DHT22;14477;51.038;4.588;2023-11-22T03:14:53;6.20;99.90
26909;DHT22;14477;51.038;4.588;2023-11-22T03:17:24;6.20;99.90
26909;DHT22;14477;51.038;4.588;2023-11-22T03:19:50;6.10;99.90
26909;DHT22;14477;51.038;4.588;2023-11-22T03:22:17;6.10;99.90
26909;DHT22;14477;51.038;4.588;2023-11-22T03:24:43;6.10;99.90
26909;DHT22;14477;51.038;4.588;2023-11-22T03:27:08;6.10;99.90
26909;DHT22;14477;51.038;4.588;2023-11-22T03:29:37;6.00;99.90
26909;DHT22;14477;51.038;4.588;2023-11-22T03:32:03;6.00;99.90
26909;DHT22;14477;51.038;4.588;2023-11-22T03:34:29;6.00;99.90
26909;DHT22;14477;51.038;4.588;2023-11-22T03:36:55;6.00;99.90
26909;DHT22;14477;51.038;4.588;2023-11-22T03:39:21;6.00;99.90
26909;DHT22;14477;51.038;4.588;2023-11-22T03:41:48;5.90;99.90
26909;DHT22;14477;51.038;4.588;2023-11-22T03:44:13;5.90;99.90
26909;DHT22;14477;51.038;4.588;2023-11-22T03:46:39;5.90;99.90
26909;DHT22;14477;51.038;4.588;2023-11-22T03:49:06;5.90;99.90
26909;DHT22;14477;51.038;4.588;2023-11-22T03:51:35;5.90;99.90
26909;DHT22;14477;51.038;4.588;2023-11-22T03:54:02;5.80;99.90
26909;DHT22;14477;51.038;4.588;2023-11-22T03:56:28;5.80;99.90
26909;DHT22;14477;51.038;4.588;2023-11-22T03:58:54;5.80;99.90
26909;DHT22;14477;51.038;4.588;2023-11-22T04:01:20;5.80;99.90
26909;DHT22;14477;51.038;4.588;2023-11-22T04:03:47;5.80;99.90
26909;DHT22;14477;51.038;4.588;2023-11-22T04:06:17;5.80;99.90
26909;DHT22;14477;51.038;4.588;2023-11-22T04:08:43;5.70;99.90
26909;DHT22;14477;51.038;4.588;2023-11-22T04:11:10;5.70;99.90
26909;DHT22;14477;51.038;4.588;2023-11-22T04:13:37;5.70;99.90
26909;DHT22;14477;51.038;4.588;2023-11-22T04:16:04;5.70;99.90
26909;DHT22;14477;51.038;4.588;2023-11-22T04:18:29;5.70;99.90
26909;DHT22;14477;51.038;4.588;2023-11-22T04:20:55;5.60;99.90
26909;DHT22;14477;51.038;4.588;2023-11-22T04:23:23;5.70;99.90
26909;DHT22;14477;51.038;4.588;2023-11-22T04:25:49;5.60;99.90
26909;DHT22;14477;51.038;4.588;2023-11-22T04:28:15;5.60;99.90
26909;DHT22;14477;51.038;4.588;2023-11-22T04:30:41;5.60;99.90
26909;DHT22;14477;51.038;4.588;2023-11-22T04:33:07;5.60;99.90
26909;DHT22;14477;51.038;4.588;2023-11-22T04:35:32;5.60;99.90
26909;DHT22;14477;51.038;4.588;2023-11-22T04:38:02;5.50;99.90
26909;DHT22;14477;51.038;4.588;2023-11-22T04:40:29;5.60;99.90
26909;DHT22;14477;51.038;4.588;2023-11-22T04:42:55;5.70;99.90
26909;DHT22;14477;51.038;4.588;2023-11-22T04:45:21;5.60;99.90
26909;DHT22;14477;51.038;4.588;2023-11-22T04:47:47;5.60;99.90
26909;DHT22;14477;51.038;4.588;2023-11-22T04:50:13;5.60;99.90
26909;DHT22;14477;51.038;4.588;2023-11-22T04:52:38;5.60;99.90
26909;DHT22;14477;51.038;4.588;2023-11-22T04:55:05;5.60;99.90
26909;DHT22;14477;51.038;4.588;2023-11-22T04:57:31;5.60;99.90
26909;DHT22;14477;51.038;4.588;2023-11-22T04:59:57;5.70;99.90
26909;DHT22;14477;51.038;4.588;2023-11-22T05:02:22;5.70;99.90
26909;DHT22;14477;51.038;4.588;2023-11-22T05:04:48;5.70;99.90
26909;DHT22;14477;51.038;4.588;2023-11-22T05:07:15;5.70;99.90
26909;DHT22;14477;51.038;4.588;2023-11-22T05:09:41;5.70;99.90
26909;DHT22;14477;51.038;4.588;2023-11-22T05:12:09;5.70;99.90
26909;DHT22;14477;51.038;4.588;2023-11-22T05:14:36;5.70;99.90
26909;DHT22;14477;51.038;4.588;2023-11-22T05:17:02;5.70;99.90
26909;DHT22;14477;51.038;4.588;2023-11-22T05:19:27;5.70;99.90
26909;DHT22;14477;51.038;4.588;2023-11-22T05:21:53;5.80;99.90
26909;DHT22;14477;51.038;4.588;2023-11-22T05:24:19;5.70;99.90
26909;DHT22;14477;51.038;4.588;2023-11-22T05:26:45;5.70;99.90
26909;DHT22;14477;51.038;4.588;2023-11-22T05:29:10;5.80;99.90
26909;DHT22;14477;51.038;4.588;2023-11-22T05:31:36;5.70;99.90
26909;DHT22;14477;51.038;4.588;2023-11-22T05:34:03;5.80;99.90
26909;DHT22;14477;51.038;4.588;2023-11-22T05:36:29;5.80;99.90
26909;DHT22;14477;51.038;4.588;2023-11-22T05:38:55;5.90;99.90
26909;DHT22;14477;51.038;4.588;2023-11-22T05:41:27;5.80;99.90
26909;DHT22;14477;51.038;4.588;2023-11-22T05:43:53;5.90;99.90
26909;DHT22;14477;51.038;4.588;2023-11-22T05:46:23;5.90;99.90
26909;DHT22;14477;51.038;4.588;2023-11-22T05:48:53;5.90;99.90
26909;DHT22;14477;51.038;4.588;2023-11-22T05:51:19;5.90;99.90
26909;DHT22;14477;51.038;4.588;2023-11-22T05:53:45;6.00;99.90
26909;DHT22;14477;51.038;4.588;2023-11-22T05:56:11;6.00;99.90
26909;DHT22;14477;51.038;4.588;2023-11-22T05:58:38;6.00;99.90
26909;DHT22;14477;51.038;4.588;2023-11-22T06:01:07;6.10;99.90
26909;DHT22;14477;51.038;4.588;2023-11-22T06:03:35;6.10;99.90
26909;DHT22;14477;51.038;4.588;2023-11-22T06:06:02;6.20;99.90
26909;DHT22;14477;51.038;4.588;2023-11-22T06:08:30;6.20;99.90
26909;DHT22;14477;51.038;4.588;2023-11-22T06:10:56;6.20;99.90
26909;DHT22;14477;51.038;4.588;2023-11-22T06:13:24;6.20;99.90
26909;DHT22;14477;51.038;4.588;2023-11-22T06:15:49;6.30;99.90
26909;DHT22;14477;51.038;4.588;2023-11-22T06:18:15;6.40;99.90
26909;DHT22;14477;51.038;4.588;2023-11-22T06:20:42;6.40;99.90
26909;DHT22;14477;51.038;4.588;2023-11-22T06:23:08;6.40;99.90
26909;DHT22;14477;51.038;4.588;2023-11-22T06:25:34;6.50;99.90
26909;DHT22;14477;51.038;4.588;2023-11-22T06:28:02;6.50;99.90
26909;DHT22;14477;51.038;4.588;2023-11-22T06:30:28;6.50;99.90
26909;DHT22;14477;51.038;4.588;2023-11-22T06:32:53;6.50;99.90
26909;DHT22;14477;51.038;4.588;2023-11-22T06:35:19;6.60;99.90
26909;DHT22;14477;51.038;4.588;2023-11-22T06:37:45;6.50;99.90
26909;DHT22;14477;51.038;4.588;2023-11-22T06:40:14;6.60;99.90
26909;DHT22;14477;51.038;4.588;2023-11-22T06:42:40;6.60;99.90
26909;DHT22;14477;51.038;4.588;2023-11-22T06:45:07;6.70;99.90
26909;DHT22;14477;51.038;4.588;2023-11-22T06:47:36;6.60;99.90
26909;DHT22;14477;51.038;4.588;2023-11-22T06:50:02;6.70;99.90
26909;DHT22;14477;51.038;4.588;2023-11-22T06:52:43;6.60;99.90
26909;DHT22;14477;51.038;4.588;2023-11-22T06:55:09;6.60;99.90
26909;DHT22;14477;51.038;4.588;2023-11-22T06:57:36;6.60;99.90
26909;DHT22;14477;51.038;4.588;2023-11-22T07:00:03;6.60;99.90
26909;DHT22;14477;51.038;4.588;2023-11-22T07:02:33;6.60;99.90
26909;DHT22;14477;51.038;4.588;2023-11-22T07:05:01;6.60;99.90
26909;DHT22;14477;51.038;4.588;2023-11-22T07:07:26;6.70;99.90
26909;DHT22;14477;51.038;4.588;2023-11-22T07:09:52;6.70;99.90
26909;DHT22;14477;51.038;4.588;2023-11-22T07:12:18;6.70;99.90
26909;DHT22;14477;51.038;4.588;2023-11-22T07:14:47;6.70;99.90
26909;DHT22;14477;51.038;4.588;2023-11-22T07:17:15;6.70;99.90
26909;DHT22;14477;51.038;4.588;2023-11-22T07:19:41;6.70;99.90
26909;DHT22;14477;51.038;4.588;2023-11-22T07:22:13;6.70;99.90
26909;DHT22;14477;51.038;4.588;2023-11-22T07:24:44;6.70;99.90
26909;DHT22;14477;51.038;4.588;2023-11-22T07:27:11;6.70;99.90
26909;DHT22;14477;51.038;4.588;2023-11-22T07:29:39;6.70;99.90
26909;DHT22;14477;51.038;4.588;2023-11-22T07:32:06;6.70;99.90
26909;DHT22;14477;51.038;4.588;2023-11-22T07:34:32;6.80;99.90
26909;DHT22;14477;51.038;4.588;2023-11-22T07:36:59;6.80;99.90
26909;DHT22;14477;51.038;4.588;2023-11-22T07:39:25;6.80;99.90
26909;DHT22;14477;51.038;4.588;2023-11-22T07:41:53;6.80;99.90
26909;DHT22;14477;51.038;4.588;2023-11-22T07:44:20;6.80;99.90
26909;DHT22;14477;51.038;4.588;2023-11-22T07:46:47;6.80;99.90
26909;DHT22;14477;51.038;4.588;2023-11-22T07:49:12;6.90;99.90
26909;DHT22;14477;51.038;4.588;2023-11-22T07:51:39;6.90;99.90
26909;DHT22;14477;51.038;4.588;2023-11-22T07:54:05;6.90;99.90
26909;DHT22;14477;51.038;4.588;2023-11-22T07:56:31;6.90;99.90
26909;DHT22;14477;51.038;4.588;2023-11-22T07:58:58;6.90;99.90
26909;DHT22;14477;51.038;4.588;2023-11-22T08:01:24;6.90;99.90
26909;DHT22;14477;51.038;4.588;2023-11-22T08:03:51;6.90;99.90
26909;DHT22;14477;51.038;4.588;2023-11-22T08:06:17;7.00;99.90
26909;DHT22;14477;51.038;4.588;2023-11-22T08:08:43;6.90;99.90
26909;DHT22;14477;51.038;4.588;2023-11-22T08:11:11;7.00;99.90
26909;DHT22;14477;51.038;4.588;2023-11-22T08:13:44;7.00;99.90
26909;DHT22;14477;51.038;4.588;2023-11-22T08:16:11;7.00;99.90
26909;DHT22;14477;51.038;4.588;2023-11-22T08:18:39;6.50;99.90
26909;DHT22;14477;51.038;4.588;2023-11-22T08:21:05;7.10;99.90
26909;DHT22;14477;51.038;4.588;2023-11-22T08:23:31;7.10;99.90
26909;DHT22;14477;51.038;4.588;2023-11-22T08:26:01;7.10;99.90
26909;DHT22;14477;51.038;4.588;2023-11-22T08:28:26;7.20;99.90
26909;DHT22;14477;51.038;4.588;2023-11-22T08:30:52;7.20;99.90
26909;DHT22;14477;51.038;4.588;2023-11-22T08:33:19;7.20;99.90
26909;DHT22;14477;51.038;4.588;2023-11-22T08:35:45;7.30;99.90
26909;DHT22;14477;51.038;4.588;2023-11-22T08:38:16;7.30;99.90
26909;DHT22;14477;51.038;4.588;2023-11-22T08:40:42;7.40;99.90
26909;DHT22;14477;51.038;4.588;2023-11-22T08:43:08;7.40;99.90
26909;DHT22;14477;51.038;4.588;2023-11-22T08:45:34;7.40;99.90
26909;DHT22;14477;51.038;4.588;2023-11-22T08:48:00;7.50;99.90
26909;DHT22;14477;51.038;4.588;2023-11-22T08:50:26;7.50;99.90
26909;DHT22;14477;51.038;4.588;2023-11-22T08:52:51;7.50;99.90
26909;DHT22;14477;51.038;4.588;2023-11-22T08:55:20;7.60;99.90
26909;DHT22;14477;51.038;4.588;2023-11-22T08:57:48;7.60;99.90
26909;DHT22;14477;51.038;4.588;2023-11-22T09:00:16;7.60;99.90
26909;DHT22;14477;51.038;4.588;2023-11-22T09:02:50;7.60;99.90
26909;DHT22;14477;51.038;4.588;2023-11-22T09:05:16;7.60;99.90
26909;DHT22;14477;51.038;4.588;2023-11-22T09:07:44;7.60;99.90
26909;DHT22;14477;51.038;4.588;2023-11-22T09:10:10;7.70;99.90
26909;DHT22;14477;51.038;4.588;2023-11-22T09:12:42;7.70;99.90
26909;DHT22;14477;51.038;4.588;2023-11-22T09:15:09;7.80;99.90
26909;DHT22;14477;51.038;4.588;2023-11-22T09:17:39;7.80;99.90
26909;DHT22;14477;51.038;4.588;2023-11-22T09:20:17;7.80;99.90
26909;DHT22;14477;51.038;4.588;2023-11-22T09:22:44;7.80;99.90
26909;DHT22;14477;51.038;4.588;2023-11-22T09:25:17;7.90;99.90
26909;DHT22;14477;51.038;4.588;2023-11-22T09:27:44;7.90;99.90
26909;DHT22;14477;51.038;4.588;2023-11-22T09:30:13;8.00;99.90
26909;DHT22;14477;51.038;4.588;2023-11-22T09:32:45;8.00;99.90
26909;DHT22;14477;51.038;4.588;2023-11-22T09:35:13;8.10;99.90
26909;DHT22;14477;51.038;4.588;2023-11-22T09:37:40;8.10;99.90
26909;DHT22;14477;51.038;4.588;2023-11-22T09:40:08;8.20;99.90
26909;DHT22;14477;51.038;4.588;2023-11-22T09:42:35;8.20;99.90
26909;DHT22;14477;51.038;4.588;2023-11-22T09:45:01;8.20;99.90
26909;DHT22;14477;51.038;4.588;2023-11-22T09:47:29;8.20;99.90
26909;DHT22;14477;51.038;4.588;2023-11-22T09:49:58;8.20;99.90
26909;DHT22;14477;51.038;4.588;2023-11-22T09:52:28;8.20;99.90
26909;DHT22;14477;51.038;4.588;2023-11-22T09:54:55;8.20;99.90
26909;DHT22;14477;51.038;4.588;2023-11-22T09:57:22;8.20;99.90
26909;DHT22;14477;51.038;4.588;2023-11-22T09:59:50;8.20;99.90
26909;DHT22;14477;51.038;4.588;2023-11-22T10:02:18;8.10;99.90
26909;DHT22;14477;51.038;4.588;2023-11-22T10:04:43;8.20;99.90
26909;DHT22;14477;51.038;4.588;2023-11-22T10:07:10;8.10;99.90
26909;DHT22;14477;51.038;4.588;2023-11-22T10:09:36;8.10;99.90
26909;DHT22;14477;51.038;4.588;2023-11-22T10:12:03;8.10;99.90
26909;DHT22;14477;51.038;4.588;2023-11-22T10:14:30;8.10;99.90
26909;DHT22;14477;51.038;4.588;2023-11-22T10:17:00;8.10;99.90
26909;DHT22;14477;51.038;4.588;2023-11-22T10:19:26;8.10;99.90
26909;DHT22;14477;51.038;4.588;2023-11-22T10:22:03;8.20;99.90
26909;DHT22;14477;51.038;4.588;2023-11-22T10:24:33;8.10;99.90
26909;DHT22;14477;51.038;4.588;2023-11-22T10:27:00;8.10;99.90
26909;DHT22;14477;51.038;4.588;2023-11-22T10:29:26;8.10;99.90
26909;DHT22;14477;51.038;4.588;2023-11-22T10:31:52;8.10;99.90
26909;DHT22;14477;51.038;4.588;2023-11-22T10:34:22;8.10;99.90
26909;DHT22;14477;51.038;4.588;2023-11-22T10:36:48;8.10;99.90
26909;DHT22;14477;51.038;4.588;2023-11-22T10:39:22;8.20;99.90
26909;DHT22;14477;51.038;4.588;2023-11-22T10:41:49;6.50;99.90
26909;DHT22;14477;51.038;4.588;2023-11-22T10:44:20;8.20;99.90
26909;DHT22;14477;51.038;4.588;2023-11-22T10:46:47;8.20;99.90
26909;DHT22;14477;51.038;4.588;2023-11-22T10:49:13;8.30;99.90
26909;DHT22;14477;51.038;4.588;2023-11-22T10:51:40;8.30;99.90
26909;DHT22;14477;51.038;4.588;2023-11-22T10:54:07;8.30;99.90
26909;DHT22;14477;51.038;4.588;2023-11-22T10:56:39;8.40;99.90
26909;DHT22;14477;51.038;4.588;2023-11-22T10:59:13;8.40;99.90
26909;DHT22;14477;51.038;4.588;2023-11-22T11:01:44;8.40;99.90
26909;DHT22;14477;51.038;4.588;2023-11-22T11:04:27;8.50;99.90
26909;DHT22;14477;51.038;4.588;2023-11-22T11:06:54;8.50;99.90
26909;DHT22;14477;51.038;4.588;2023-11-22T11:09:24;8.50;99.90
26909;DHT22;14477;51.038;4.588;2023-11-22T11:11:55;8.50;99.90
26909;DHT22;14477;51.038;4.588;2023-11-22T11:14:23;8.50;99.90
26909;DHT22;14477;51.038;4.588;2023-11-22T11:16:50;8.50;99.90
26909;DHT22;14477;51.038;4.588;2023-11-22T11:19:20;8.50;99.90
26909;DHT22;14477;51.038;4.588;2023-11-22T11:21:48;8.50;99.90
26909;DHT22;14477;51.038;4.588;2023-11-22T11:24:13;8.60;99.90
26909;DHT22;14477;51.038;4.588;2023-11-22T11:26:40;7.90;99.90
26909;DHT22;14477;51.038;4.588;2023-11-22T11:29:06;8.60;99.90
26909;DHT22;14477;51.038;4.588;2023-11-22T11:31:37;8.60;99.90
26909;DHT22;14477;51.038;4.588;2023-11-22T11:34:07;8.70;99.90
26909;DHT22;14477;51.038;4.588;2023-11-22T11:36:37;8.70;99.90
26909;DHT22;14477;51.038;4.588;2023-11-22T11:39:06;8.80;99.90
26909;DHT22;14477;51.038;4.588;2023-11-22T11:41:41;8.80;99.90
26909;DHT22;14477;51.038;4.588;2023-11-22T11:44:10;8.70;99.90
26909;DHT22;14477;51.038;4.588;2023-11-22T11:46:38;8.80;99.90
26909;DHT22;14477;51.038;4.588;2023-11-22T11:49:08;8.80;99.90
26909;DHT22;14477;51.038;4.588;2023-11-22T11:51:38;8.80;99.90
26909;DHT22;14477;51.038;4.588;2023-11-22T11:54:03;8.10;99.90
26909;DHT22;14477;51.038;4.588;2023-11-22T11:56:31;8.90;99.90
26909;DHT22;14477;51.038;4.588;2023-11-22T11:58:58;8.90;99.90
26909;DHT22;14477;51.038;4.588;2023-11-22T12:01:28;8.90;99.90
26909;DHT22;14477;51.038;4.588;2023-11-22T12:03:55;9.00;99.90
26909;DHT22;14477;51.038;4.588;2023-11-22T12:06:21;9.10;99.90
26909;DHT22;14477;51.038;4.588;2023-11-22T12:08:47;9.10;99.90
26909;DHT22;14477;51.038;4.588;2023-11-22T12:11:14;9.20;99.90
26909;DHT22;14477;51.038;4.588;2023-11-22T12:13:41;9.20;99.90
26909;DHT22;14477;51.038;4.588;2023-11-22T12:16:18;9.30;99.90
26909;DHT22;14477;51.038;4.588;2023-11-22T12:18:48;9.30;99.90
26909;DHT22;14477;51.038;4.588;2023-11-22T12:21:16;9.30;99.90
26909;DHT22;14477;51.038;4.588;2023-11-22T12:23:43;9.30;99.90
26909;DHT22;14477;51.038;4.588;2023-11-22T12:26:15;9.30;99.90
26909;DHT22;14477;51.038;4.588;2023-11-22T12:28:45;9.30;99.90
26909;DHT22;14477;51.038;4.588;2023-11-22T12:31:12;9.30;99.90
26909;DHT22;14477;51.038;4.588;2023-11-22T12:33:40;9.30;99.90
26909;DHT22;14477;51.038;4.588;2023-11-22T12:36:08;9.30;99.90
26909;DHT22;14477;51.038;4.588;2023-11-22T12:38:42;9.40;99.90
26909;DHT22;14477;51.038;4.588;2023-11-22T12:41:08;9.40;99.90
26909;DHT22;14477;51.038;4.588;2023-11-22T12:43:34;9.40;99.90
26909;DHT22;14477;51.038;4.588;2023-11-22T12:46:07;9.40;99.90
26909;DHT22;14477;51.038;4.588;2023-11-22T12:48:33;9.50;99.90
26909;DHT22;14477;51.038;4.588;2023-11-22T12:51:00;9.50;99.90
26909;DHT22;14477;51.038;4.588;2023-11-22T12:53:26;9.60;99.90
26909;DHT22;14477;51.038;4.588;2023-11-22T12:55:54;9.60;99.90
26909;DHT22;14477;51.038;4.588;2023-11-22T12:58:22;9.60;99.90
26909;DHT22;14477;51.038;4.588;2023-11-22T13:00:50;9.60;99.90
26909;DHT22;14477;51.038;4.588;2023-11-22T13:03:16;9.70;99.90
26909;DHT22;14477;51.038;4.588;2023-11-22T13:05:43;9.70;99.90
26909;DHT22;14477;51.038;4.588;2023-11-22T13:08:10;9.70;99.90
26909;DHT22;14477;51.038;4.588;2023-11-22T13:10:47;9.80;99.90
26909;DHT22;14477;51.038;4.588;2023-11-22T13:13:22;9.80;99.90
26909;DHT22;14477;51.038;4.588;2023-11-22T13:15:49;9.90;99.90
26909;DHT22;14477;51.038;4.588;2023-11-22T13:18:18;9.90;99.90
26909;DHT22;14477;51.038;4.588;2023-11-22T13:20:44;10.10;99.90
26909;DHT22;14477;51.038;4.588;2023-11-22T13:23:11;10.20;99.90
26909;DHT22;14477;51.038;4.588;2023-11-22T13:25:37;10.40;99.90
26909;DHT22;14477;51.038;4.588;2023-11-22T13:28:04;10.60;99.90
26909;DHT22;14477;51.038;4.588;2023-11-22T13:30:31;10.80;99.90
26909;DHT22;14477;51.038;4.588;2023-11-22T13:32:57;11.00;99.90
26909;DHT22;14477;51.038;4.588;2023-11-22T13:35:27;11.20;99.90
26909;DHT22;14477;51.038;4.588;2023-11-22T13:37:57;11.30;99.90
26909;DHT22;14477;51.038;4.588;2023-11-22T13:40:23;11.40;99.90
26909;DHT22;14477;51.038;4.588;2023-11-22T13:42:51;11.50;99.90
26909;DHT22;14477;51.038;4.588;2023-11-22T13:45:20;11.60;99.90
26909;DHT22;14477;51.038;4.588;2023-11-22T13:47:47;11.60;99.90
26909;DHT22;14477;51.038;4.588;2023-11-22T13:50:14;11.50;99.90
26909;DHT22;14477;51.038;4.588;2023-11-22T13:52:45;11.60;99.90
26909;DHT22;14477;51.038;4.588;2023-11-22T13:55:11;11.50;99.90
26909;DHT22;14477;51.038;4.588;2023-11-22T13:57:38;11.40;99.90
26909;DHT22;14477;51.038;4.588;2023-11-22T14:00:06;11.30;99.90
26909;DHT22;14477;51.038;4.588;2023-11-22T14:02:36;11.20;99.90
26909;DHT22;14477;51.038;4.588;2023-11-22T14:05:03;11.10;99.90
26909;DHT22;14477;51.038;4.588;2023-11-22T14:07:34;11.00;99.90
26909;DHT22;14477;51.038;4.588;2023-11-22T14:09:59;10.90;99.90
26909;DHT22;14477;51.038;4.588;2023-11-22T14:12:25;10.90;99.90
26909;DHT22;14477;51.038;4.588;2023-11-22T14:14:51;10.80;99.90
26909;DHT22;14477;51.038;4.588;2023-11-22T14:17:17;10.80;99.90
26909;DHT22;14477;51.038;4.588;2023-11-22T14:19:46;10.80;99.90
26909;DHT22;14477;51.038;4.588;2023-11-22T14:22:12;10.90;99.90
26909;DHT22;14477;51.038;4.588;2023-11-22T14:24:39;10.80;99.90
26909;DHT22;14477;51.038;4.588;2023-11-22T14:27:05;10.70;99.90
26909;DHT22;14477;51.038;4.588;2023-11-22T14:29:31;10.70;99.90
26909;DHT22;14477;51.038;4.588;2023-11-22T14:31:58;10.70;99.90
26909;DHT22;14477;51.038;4.588;2023-11-22T14:34:24;10.70;99.90
26909;DHT22;14477;51.038;4.588;2023-11-22T14:36:50;10.60;99.90
26909;DHT22;14477;51.038;4.588;2023-11-22T14:39:15;10.60;99.90
26909;DHT22;14477;51.038;4.588;2023-11-22T14:41:41;10.50;99.90
26909;DHT22;14477;51.038;4.588;2023-11-22T14:44:07;10.50;99.90
26909;DHT22;14477;51.038;4.588;2023-11-22T14:46:35;10.50;99.90
26909;DHT22;14477;51.038;4.588;2023-11-22T14:49:02;10.50;99.90
26909;DHT22;14477;51.038;4.588;2023-11-22T14:51:30;10.40;99.90
26909;DHT22;14477;51.038;4.588;2023-11-22T14:53:56;10.40;99.90
26909;DHT22;14477;51.038;4.588;2023-11-22T14:56:21;10.40;99.90
26909;DHT22;14477;51.038;4.588;2023-11-22T14:58:48;10.40;99.90
26909;DHT22;14477;51.038;4.588;2023-11-22T15:01:22;10.40;99.90
26909;DHT22;14477;51.038;4.588;2023-11-22T15:03:52;10.30;99.90
26909;DHT22;14477;51.038;4.588;2023-11-22T15:06:21;10.30;99.90
26909;DHT22;14477;51.038;4.588;2023-11-22T15:08:47;10.30;99.90
26909;DHT22;14477;51.038;4.588;2023-11-22T15:11:14;10.30;99.90
26909;DHT22;14477;51.038;4.588;2023-11-22T15:13:41;10.30;99.90
26909;DHT22;14477;51.038;4.588;2023-11-22T15:16:07;10.30;99.90
26909;DHT22;14477;51.038;4.588;2023-11-22T15:18:33;10.20;99.90
26909;DHT22;14477;51.038;4.588;2023-11-22T15:20:59;10.20;99.90
26909;DHT22;14477;51.038;4.588;2023-11-22T15:23:25;9.90;99.90
26909;DHT22;14477;51.038;4.588;2023-11-22T15:25:51;10.20;99.90
26909;DHT22;14477;51.038;4.588;2023-11-22T15:28:18;10.20;99.90
26909;DHT22;14477;51.038;4.588;2023-11-22T15:30:51;10.20;99.90
26909;DHT22;14477;51.038;4.588;2023-11-22T15:33:23;10.20;99.90
26909;DHT22;14477;51.038;4.588;2023-11-22T15:35:49;10.10;99.90
26909;DHT22;14477;51.038;4.588;2023-11-22T15:38:15;10.20;99.90
26909;DHT22;14477;51.038;4.588;2023-11-22T15:40:41;10.20;99.90
26909;DHT22;14477;51.038;4.588;2023-11-22T15:43:06;10.10;99.90
26909;DHT22;14477;51.038;4.588;2023-11-22T15:45:33;10.10;99.90